createdAt,value
2019-03-26T00:01:42.655Z,28.95
2019-03-26T00:04:38.305Z,27.98
2019-03-26T00:07:34.066Z,30.12
2019-03-26T00:10:29.885Z,29.05
2019-03-26T00:13:25.854Z,31.50
2019-03-26T00:16:21.719Z,30.27
2019-03-26T00:19:17.688Z,31.95
2019-03-26T00:22:13.443Z,30.95
2019-03-26T00:25:09.505Z,30.82
2019-03-26T00:28:06.117Z,32.58
2019-03-26T00:31:02.113Z,30.92
2019-03-26T00:33:58.972Z,31.80
2019-03-26T00:36:54.999Z,31.48
2019-03-26T00:39:50.337Z,29.92
2019-03-26T00:42:45.852Z,29.13
2019-03-26T00:45:41.535Z,31.30
2019-03-26T00:48:38.613Z,30.20
2019-03-26T00:51:34.308Z,29.27
2019-03-26T00:54:29.844Z,31.70
2019-03-26T00:57:25.193Z,31.25
2019-03-26T01:00:25.518Z,31.70
2019-03-26T01:03:21.042Z,32.90
2019-03-26T01:06:16.836Z,33.02
2019-03-26T01:09:12.855Z,37.03
2019-03-26T01:12:08.817Z,32.95
2019-03-26T01:15:04.570Z,33.42
2019-03-26T01:18:00.293Z,32.30
2019-03-26T01:20:55.743Z,35.13
2019-03-26T01:23:51.788Z,34.85
2019-03-26T01:26:47.881Z,36.30
2019-03-26T01:29:43.856Z,35.50
2019-03-26T01:32:39.629Z,36.77
2019-03-26T01:35:36.179Z,35.50
2019-03-26T01:38:32.046Z,36.03
2019-03-26T01:41:28.333Z,35.17
2019-03-26T01:44:24.063Z,35.70
2019-03-26T01:47:20.239Z,41.85
2019-03-26T01:50:16.227Z,42.50
2019-03-26T01:53:11.681Z,41.30
2019-03-26T01:56:06.966Z,43.90
2019-03-26T01:59:12.447Z,45.20
2019-03-26T02:02:04.282Z,47.05
2019-03-26T02:05:00.628Z,48.17
2019-03-26T02:07:57.722Z,46.50
2019-03-26T02:10:56.131Z,47.62
2019-03-26T02:13:55.038Z,44.48
2019-03-26T02:16:50.763Z,45.35
2019-03-26T02:19:46.379Z,44.98
2019-03-26T02:22:41.873Z,43.92
2019-03-26T02:25:37.428Z,45.23
2019-03-26T02:28:33.456Z,43.65
2019-03-26T02:31:29.201Z,43.28
2019-03-26T02:34:24.878Z,44.45
2019-03-26T02:37:20.728Z,44.67
2019-03-26T02:40:16.735Z,44.23
2019-03-26T02:43:12.246Z,44.23
2019-03-26T02:46:07.954Z,45.33
2019-03-26T02:49:08.108Z,42.10
2019-03-26T02:52:03.885Z,43.10
2019-03-26T02:55:00.970Z,42.60
2019-03-26T02:57:56.868Z,42.48
2019-03-26T03:00:53.204Z,42.27
2019-03-26T03:03:49.126Z,41.15
2019-03-26T03:06:44.996Z,40.08
2019-03-26T03:09:42.332Z,40.65
2019-03-26T03:12:38.852Z,39.98
2019-03-26T03:15:36.684Z,40.40
2019-03-26T03:18:34.158Z,41.28
2019-03-26T03:21:29.878Z,41.83
2019-03-26T03:24:26.236Z,40.17
2019-03-26T03:27:22.094Z,40.52
2019-03-26T03:30:17.765Z,39.45
2019-03-26T03:33:14.680Z,41.90
2019-03-26T03:36:12.749Z,41.83
2019-03-26T03:39:09.775Z,39.92
2019-03-26T03:42:06.500Z,43.60
2019-03-26T03:45:08.148Z,45.33
2019-03-26T03:48:04.737Z,47.43
2019-03-26T03:51:02.036Z,45.17
2019-03-26T03:53:58.221Z,45.17
2019-03-26T03:56:56.047Z,47.43
2019-03-26T03:59:52.189Z,42.88
2019-03-26T04:02:47.590Z,44.73
2019-03-26T04:05:44.004Z,47.20
2019-03-26T04:08:41.520Z,49.25
2019-03-26T04:11:37.159Z,47.10
2019-03-26T04:14:32.939Z,46.13
2019-03-26T04:17:28.662Z,47.08
2019-03-26T04:20:24.508Z,44.40
2019-03-26T04:23:20.021Z,45.73
2019-03-26T04:26:15.633Z,43.08
2019-03-26T04:29:11.368Z,43.50
2019-03-26T04:32:06.842Z,45.33
2019-03-26T04:35:04.441Z,45.40
2019-03-26T04:38:01.482Z,43.50
2019-03-26T05:04:37.399Z,48.65
2019-03-26T05:07:35.064Z,47.93
2019-03-26T05:10:33.636Z,49.27
2019-03-26T05:13:33.012Z,49.48
2019-03-26T05:16:33.044Z,48.85
2019-03-26T05:19:30.321Z,49.77
2019-03-26T05:22:28.184Z,49.65
2019-03-26T05:25:27.450Z,49.50
2019-03-26T05:28:27.749Z,52.30
2019-03-26T05:31:26.048Z,51.48
2019-03-26T05:34:22.593Z,51.90
2019-03-26T05:37:18.739Z,56.77
2019-03-26T05:40:19.754Z,51.23
2019-03-26T05:43:19.886Z,49.65
2019-03-26T05:46:22.128Z,51.85
2019-03-26T05:49:23.047Z,51.23
2019-03-26T05:52:22.560Z,53.40
2019-03-26T05:55:22.165Z,56.87
2019-03-26T05:58:25.669Z,50.60
2019-03-26T06:01:29.689Z,52.97
2019-03-26T06:04:30.873Z,53.40
2019-03-26T06:07:38.499Z,53.73
2019-03-26T06:10:44.248Z,53.98
2019-03-26T06:13:41.526Z,53.13
2019-03-26T06:16:42.627Z,55.70
2019-03-26T06:19:57.275Z,62.03
2019-03-26T06:22:55.651Z,61.13
2019-03-26T06:25:57.382Z,54.10
2019-03-26T06:28:57.206Z,54.73
2019-03-26T06:31:58.949Z,56.25
2019-03-26T06:34:55.563Z,51.28
2019-03-26T06:37:52.654Z,51.18
2019-03-26T06:41:01.540Z,55.00
2019-03-26T06:44:05.124Z,51.90
2019-03-26T06:47:02.072Z,54.90
2019-03-26T06:50:05.951Z,54.42
2019-03-26T06:53:05.901Z,53.90
2019-03-26T06:56:04.428Z,53.95
2019-03-26T06:59:45.144Z,54.88
2019-03-26T07:03:17.347Z,50.70
2019-03-26T07:07:03.704Z,51.60
2019-03-26T07:10:25.251Z,52.83
2019-03-26T07:13:58.276Z,54.63
2019-03-26T07:17:18.358Z,52.98
2019-03-26T07:20:17.527Z,52.43
2019-03-26T07:23:42.104Z,52.53
2019-03-26T07:27:00.919Z,54.18
2019-03-26T07:30:45.571Z,53.38
2019-03-26T07:34:01.132Z,56.90
2019-03-26T07:38:03.927Z,53.92
2019-03-26T07:41:30.440Z,55.95
2019-03-26T07:44:46.143Z,54.83
2019-03-26T07:47:45.784Z,53.38
2019-03-26T07:51:06.059Z,54.73
2019-03-26T07:54:27.983Z,54.25
2019-03-26T07:57:32.078Z,54.93
2019-03-26T08:00:36.721Z,56.98
2019-03-26T08:03:39.913Z,54.88
2019-03-26T08:06:37.338Z,52.23
2019-03-26T08:09:50.624Z,54.18
2019-03-26T08:13:12.158Z,53.38
2019-03-26T08:16:42.860Z,52.25
2019-03-26T08:19:41.574Z,52.50
2019-03-26T08:22:39.314Z,55.80
2019-03-26T08:25:45.052Z,53.40
2019-03-26T08:28:51.840Z,53.85
2019-03-26T08:31:49.541Z,53.48
2019-03-26T08:34:50.193Z,53.78
2019-03-26T08:37:49.284Z,54.25
2019-03-26T08:40:46.586Z,55.45
2019-03-26T08:43:48.090Z,54.30
2019-03-26T08:46:46.393Z,56.35
2019-03-26T08:49:44.569Z,54.10
2019-03-26T08:52:47.308Z,56.05
2019-03-26T08:55:58.330Z,56.60
2019-03-26T08:59:02.666Z,55.85
2019-03-26T09:16:23.690Z,58.08
2019-03-26T09:19:22.374Z,56.65
2019-03-26T09:22:20.130Z,58.58
2019-03-26T09:25:20.846Z,60.23
2019-03-26T09:28:19.506Z,56.90
2019-03-26T09:31:17.824Z,59.35
2019-03-26T09:34:14.587Z,59.53
2019-03-26T09:37:10.784Z,55.98
2019-03-26T09:40:07.818Z,57.40
2019-03-26T09:43:03.529Z,56.33
2019-03-26T09:46:01.075Z,54.50
2019-03-26T09:49:11.436Z,57.05
2019-03-26T09:52:17.425Z,56.65
2019-03-26T09:55:20.353Z,55.20
2019-03-26T09:58:20.817Z,54.35
2019-03-26T10:01:23.288Z,55.23
2019-03-26T10:04:20.318Z,56.90
2019-03-26T10:07:21.816Z,58.15
2019-03-26T10:10:21.518Z,55.73
2019-03-26T10:13:21.332Z,55.17
2019-03-26T10:16:21.800Z,57.70
2019-03-26T10:19:18.104Z,56.98
2019-03-26T10:22:19.840Z,57.88
2019-03-26T10:25:14.162Z,56.13
2019-03-26T10:28:10.042Z,58.95
2019-03-26T10:31:10.255Z,55.88
2019-03-26T10:34:07.862Z,56.90
2019-03-26T10:37:04.964Z,55.40
2019-03-26T10:40:01.426Z,58.78
2019-03-26T10:43:01.062Z,59.80
2019-03-26T10:45:58.846Z,57.83
2019-03-26T10:48:55.186Z,58.70
2019-03-26T10:51:51.247Z,55.70
2019-03-26T10:54:47.697Z,56.68
2019-03-26T10:57:43.547Z,56.35
2019-03-26T11:00:40.003Z,56.18
2019-03-26T11:03:36.688Z,55.28
2019-03-26T11:06:35.399Z,53.50
2019-03-26T11:09:35.482Z,55.43
2019-03-26T11:12:31.932Z,55.25
2019-03-26T11:15:29.346Z,52.13
2019-03-26T11:18:25.880Z,50.30
2019-03-26T11:21:22.907Z,54.27
2019-03-26T11:24:27.419Z,49.42
2019-03-26T11:27:50.208Z,51.65
2019-03-26T11:30:46.580Z,46.25
2019-03-26T11:33:43.133Z,45.08
2019-03-26T11:36:43.693Z,43.92
2019-03-26T11:39:42.053Z,44.65
2019-03-26T11:42:42.840Z,44.25
2019-03-26T11:45:38.484Z,44.18
2019-03-26T11:48:34.597Z,41.90
2019-03-26T11:51:32.158Z,40.63
2019-03-26T11:54:28.939Z,39.27
2019-03-26T11:57:24.736Z,38.02
2019-03-26T12:00:26.175Z,36.60
2019-03-26T12:03:26.613Z,35.03
2019-03-26T12:06:23.573Z,36.48
2019-03-26T12:09:20.195Z,37.40
2019-03-26T12:12:18.727Z,36.55
2019-03-26T12:15:17.777Z,34.78
2019-03-26T12:18:17.701Z,37.03
2019-03-26T12:21:17.378Z,36.17
2019-03-26T12:24:13.483Z,35.05
2019-03-26T12:27:15.273Z,34.43
2019-03-26T12:30:12.207Z,34.78
2019-03-26T12:33:08.995Z,33.90
2019-03-26T12:36:04.374Z,32.80
2019-03-26T12:38:59.649Z,34.80
2019-03-26T12:41:56.193Z,34.50
2019-03-26T12:44:59.811Z,33.85
2019-03-26T12:47:56.775Z,34.03
2019-03-26T12:50:52.998Z,36.48
2019-03-26T12:53:48.817Z,35.15
2019-03-26T12:56:45.170Z,35.48
2019-03-26T12:59:41.254Z,36.13
2019-03-26T13:02:38.510Z,36.68
2019-03-26T13:05:34.685Z,38.63
2019-03-26T13:08:31.147Z,38.98
2019-03-26T13:11:28.052Z,38.15
2019-03-26T13:14:24.756Z,39.30
2019-03-26T13:17:20.880Z,39.08
2019-03-26T13:20:17.807Z,42.33
2019-03-26T13:23:14.373Z,39.83
2019-03-26T13:26:12.265Z,42.13
2019-03-26T13:29:23.320Z,42.60
2019-03-26T13:32:20.585Z,43.35
2019-03-26T13:35:16.585Z,41.98
2019-03-26T13:38:15.564Z,43.05
2019-03-26T13:41:11.435Z,42.60
2019-03-26T13:44:07.615Z,42.30
2019-03-26T13:47:04.503Z,43.08
2019-03-26T13:50:00.707Z,42.55
2019-03-26T13:52:56.736Z,43.92
2019-03-26T13:55:53.186Z,43.23
2019-03-26T13:58:48.646Z,42.83
2019-03-26T14:01:44.405Z,42.62
2019-03-26T14:04:40.846Z,43.58
2019-03-26T14:07:36.544Z,42.60
2019-03-26T14:10:40.927Z,41.88
2019-03-26T14:13:29.099Z,40.80
2019-03-26T14:16:26.250Z,41.60
2019-03-26T14:19:22.012Z,41.08
2019-03-26T14:22:17.868Z,41.85
2019-03-26T14:25:14.825Z,40.40
2019-03-26T14:28:10.571Z,41.45
2019-03-26T14:31:07.967Z,41.28
2019-03-26T14:34:04.644Z,40.25
2019-03-26T14:37:01.696Z,39.92
2019-03-26T14:39:57.745Z,39.65
2019-03-26T14:42:53.453Z,40.52
2019-03-26T14:45:49.572Z,40.38
2019-03-26T14:48:44.940Z,39.73
2019-03-26T14:51:40.396Z,41.13
2019-03-26T14:54:36.531Z,40.83
2019-03-26T14:57:32.194Z,39.30
2019-03-26T15:00:27.873Z,39.35
2019-03-26T15:03:25.422Z,39.42
2019-03-26T15:06:21.371Z,39.65
2019-03-26T15:09:17.354Z,40.12
2019-03-26T15:12:14.205Z,39.40
2019-03-26T15:15:10.328Z,39.48
2019-03-26T15:18:06.225Z,38.65
2019-03-26T15:21:01.805Z,40.50
2019-03-26T15:23:57.141Z,39.53
2019-03-26T15:26:53.651Z,39.60
2019-03-26T15:29:52.038Z,39.35
2019-03-26T15:32:49.745Z,38.88
2019-03-26T15:35:45.623Z,38.85
2019-03-26T15:38:42.754Z,38.08
2019-03-26T15:41:39.675Z,38.13
2019-03-26T15:44:36.795Z,37.85
2019-03-26T15:47:32.757Z,38.70
2019-03-26T15:50:49.499Z,38.48
2019-03-26T15:53:46.109Z,37.73
2019-03-26T15:56:47.316Z,37.93
2019-03-26T15:59:43.023Z,37.80
2019-03-26T16:02:48.714Z,38.02
2019-03-26T16:05:46.086Z,38.08
2019-03-26T16:08:44.592Z,38.10
2019-03-26T16:11:48.196Z,37.10
2019-03-26T16:14:44.085Z,38.30
2019-03-26T16:17:44.029Z,37.78
2019-03-26T16:20:39.928Z,36.10
2019-03-26T16:23:40.465Z,36.42
2019-03-26T16:26:45.618Z,37.45
2019-03-26T16:29:58.369Z,36.90
2019-03-26T16:32:55.333Z,35.95
2019-03-26T16:35:55.385Z,38.17
2019-03-26T16:38:53.101Z,36.93
2019-03-26T16:41:49.631Z,36.48
2019-03-26T16:44:46.770Z,37.48
2019-03-26T16:47:42.789Z,36.73
2019-03-26T16:50:41.567Z,36.77
2019-03-26T16:53:40.500Z,37.30
2019-03-26T16:56:34.890Z,37.30
2019-03-26T16:59:38.363Z,36.30
2019-03-26T17:02:37.704Z,36.13
2019-03-26T17:05:35.462Z,36.70
2019-03-26T17:08:36.383Z,35.50
2019-03-26T17:11:31.317Z,34.90
2019-03-26T17:14:28.164Z,34.13
2019-03-26T17:17:24.121Z,33.60
2019-03-26T17:20:19.691Z,33.48
2019-03-26T17:23:16.389Z,33.15
2019-03-26T17:26:15.342Z,33.73
2019-03-26T17:29:10.763Z,32.23
2019-03-26T17:32:07.127Z,32.15
2019-03-26T17:35:03.034Z,31.50
2019-03-26T17:38:00.410Z,31.75
2019-03-26T17:41:09.430Z,30.77
2019-03-26T17:44:07.845Z,30.05
2019-03-26T17:47:04.823Z,29.85
2019-03-26T17:50:03.970Z,27.52
2019-03-26T17:52:59.819Z,25.82
2019-03-26T17:55:56.462Z,27.02
2019-03-26T17:58:52.576Z,25.80
2019-03-26T18:01:48.511Z,25.92
2019-03-26T18:04:44.904Z,24.10
2019-03-26T18:07:40.422Z,23.80
2019-03-26T18:10:36.304Z,24.52
2019-03-26T18:13:32.374Z,23.98
2019-03-26T18:16:43.260Z,24.00
2019-03-26T18:19:41.161Z,21.75
2019-03-26T18:22:36.672Z,21.93
2019-03-26T18:25:32.175Z,22.45
2019-03-26T18:28:27.600Z,21.77
2019-03-26T18:31:23.085Z,22.50
2019-03-26T18:34:18.470Z,20.92
2019-03-26T18:37:14.251Z,21.50
2019-03-26T18:40:09.923Z,19.27
2019-03-26T18:43:06.089Z,20.35
2019-03-26T18:46:01.629Z,20.23
2019-03-26T18:48:57.212Z,19.40
2019-03-26T18:51:53.003Z,19.00
2019-03-26T18:54:49.154Z,18.95
2019-03-26T18:57:44.626Z,18.32
2019-03-26T19:00:41.715Z,18.90
2019-03-26T19:03:37.865Z,18.25
2019-03-26T19:06:33.782Z,18.67
2019-03-26T19:09:29.251Z,17.32
2019-03-26T19:12:24.628Z,17.30
2019-03-26T19:15:20.744Z,17.37
2019-03-26T19:18:16.182Z,16.45
2019-03-26T19:21:11.868Z,17.00
2019-03-26T19:24:07.513Z,15.68
2019-03-26T19:27:04.367Z,15.55
2019-03-26T19:30:00.499Z,15.17
2019-03-26T19:32:57.638Z,16.17
2019-03-26T19:35:53.315Z,14.75
2019-03-26T19:38:49.245Z,14.77
2019-03-26T19:41:44.568Z,13.67
2019-03-26T19:44:41.896Z,14.20
2019-03-26T19:47:36.766Z,12.97
2019-03-26T19:50:32.271Z,14.00
2019-03-26T19:53:27.855Z,13.47
2019-03-26T19:56:23.774Z,13.97
2019-03-26T19:59:19.540Z,13.17
2019-03-26T20:02:15.171Z,12.60
2019-03-26T20:05:11.679Z,12.43
2019-03-26T20:08:07.492Z,13.20
2019-03-26T20:11:03.127Z,12.10
2019-03-26T20:13:58.470Z,12.00
2019-03-26T20:16:53.716Z,13.70
2019-03-26T20:19:49.692Z,13.30
2019-03-26T20:22:45.330Z,12.23
2019-03-26T20:25:41.363Z,11.50
2019-03-26T20:28:36.935Z,11.77
2019-03-26T20:31:33.178Z,12.17
2019-03-26T20:34:30.676Z,12.20
2019-03-26T20:37:26.246Z,11.83
2019-03-26T20:40:21.985Z,11.73
2019-03-26T20:43:18.057Z,11.07
2019-03-26T20:46:14.151Z,11.43
2019-03-26T20:49:09.798Z,11.00
2019-03-26T20:52:05.614Z,11.70
2019-03-26T20:55:01.248Z,10.70
2019-03-26T20:57:57.056Z,11.13
2019-03-26T21:00:52.707Z,10.73
2019-03-26T21:03:50.090Z,11.03
2019-03-26T21:06:46.107Z,11.07
2019-03-26T21:09:41.931Z,10.77
2019-03-26T21:12:37.310Z,10.37
2019-03-26T21:15:33.022Z,10.17
2019-03-26T21:18:29.033Z,10.77
2019-03-26T21:21:24.716Z,10.30
2019-03-26T21:24:20.633Z,10.47
2019-03-26T21:27:17.079Z,10.40
2019-03-26T21:30:15.993Z,11.00
2019-03-26T21:33:12.082Z,10.87
2019-03-26T21:36:08.299Z,10.10
2019-03-26T21:39:04.496Z,10.93
2019-03-26T21:42:01.066Z,10.77
2019-03-26T21:44:56.430Z,10.03
2019-03-26T21:47:51.598Z,9.93
2019-03-26T21:50:47.423Z,10.47
2019-03-26T21:53:43.541Z,10.27
2019-03-26T21:56:39.264Z,10.73
2019-03-26T21:59:34.948Z,10.47
2019-03-26T22:02:31.093Z,10.10
2019-03-26T22:05:26.972Z,10.87
2019-03-26T22:08:22.801Z,10.57
2019-03-26T22:11:18.368Z,10.90
2019-03-26T22:14:18.329Z,9.73
2019-03-26T22:17:11.012Z,10.57
2019-03-26T22:20:07.959Z,9.90
2019-03-26T22:23:03.837Z,9.47
2019-03-26T22:25:59.710Z,10.03
2019-03-26T22:28:55.468Z,10.47
2019-03-26T22:31:51.291Z,10.37
2019-03-26T22:34:46.512Z,10.53
2019-03-26T22:37:42.188Z,10.53
2019-03-26T22:40:37.920Z,10.87
2019-03-26T22:43:33.607Z,10.30
2019-03-26T22:46:29.242Z,10.20
2019-03-26T22:49:24.787Z,10.93
2019-03-26T22:52:20.470Z,11.00
2019-03-26T22:55:16.353Z,11.20
2019-03-26T22:58:12.037Z,10.40
2019-03-26T23:01:08.978Z,10.80
2019-03-26T23:04:05.927Z,11.20
2019-03-26T23:07:02.019Z,11.13
2019-03-26T23:09:59.016Z,11.43
2019-03-26T23:12:54.308Z,11.23
2019-03-26T23:15:50.215Z,10.73
2019-03-26T23:18:45.431Z,11.13
2019-03-26T23:21:40.627Z,10.33
2019-03-26T23:24:36.025Z,10.47
2019-03-26T23:27:31.289Z,11.47
2019-03-26T23:30:27.506Z,11.57
2019-03-26T23:33:22.900Z,11.17
2019-03-26T23:36:18.730Z,11.07
2019-03-26T23:39:14.402Z,11.50
2019-03-26T23:42:10.143Z,11.50
2019-03-26T23:45:05.813Z,11.13
2019-03-26T23:48:01.391Z,11.30
2019-03-26T23:50:57.170Z,11.60
2019-03-26T23:53:53.524Z,12.00
2019-03-26T23:56:49.390Z,12.00
2019-03-26T23:59:45.180Z,12.37
